Slnc Moku Pahu — WBWK — position and weather

sailwx.info

Track history (hours):
 
Tides and Currents Weather Stations Pressure Air Temp Water Temp Dewpoint Dewpoint Depression Visibility Wind Speed Wind Dir Waves Ship Positions

Slnc Moku Pahu

Owner: American Ship Management, LLC., Concord, CA. More information available from US FCC via Universal Licensing System and Coast Guard Vessel Documentation Center.

Last reported at 2017-Nov-07 12:32 UTC. Time now 2017-Nov-24 05:51 UTC.
Position N 35°45' E 014°25'.
Warning: this ship's position is 16 days out of date.

Type: Cargo ship. MMSI: 366857000.

Date/timePositionNaut miles runAvg speedWind from/ knotsBaromVisibWave heightAir tempDewpointWater temp
2017-Nov-07 12:32N 35°45' E 014°25'013.4
2017-Nov-07 12:30N 35°45' E 014°25'713.4
2017-Nov-07 12:00N 35°49' E 014°18'713.3
2017-Nov-07 11:30N 35°53' E 014°12'713.2
2017-Nov-07 10:59N 35°56' E 014°05'613.3
2017-Nov-07 10:30N 36°00' E 013°58'  
2017-Nov-02 21:46N 35°59' W 005°18'  
2017-Oct-30 11:54N 34°39' W 021°12'512.9
2017-Oct-30 11:30N 34°35' W 021°15'912.1
2017-Oct-30 10:47N 34°29' W 021°23'3011.8
2017-Oct-30 08:13N 34°19' W 021°57'1612.6
2017-Oct-30 06:59N 34°17' W 022°16'812.6
2017-Oct-30 06:23N 34°15' W 022°25'512.7
2017-Oct-30 06:00N 34°15' W 022°31'712.8
2017-Oct-30 05:28N 34°14' W 022°39'612.8
2017-Oct-30 05:01N 34°13' W 022°46'713.0
2017-Oct-30 04:28N 34°11' W 022°55'1113.1
2017-Oct-30 03:36N 34°09' W 023°08'112.9
2017-Oct-30 03:30N 34°09' W 023°09'1513.3
2017-Oct-30 02:23N 34°06' W 023°27'513.1
2017-Oct-30 02:00N 34°05' W 023°33'713.3
2017-Oct-30 01:30N 34°03' W 023°41'1513.4
2017-Oct-30 00:25N 34°01' W 023°58'2413.2
2017-Oct-29 22:34N 33°55' W 024°27'2213.3
2017-Oct-29 20:55N 33°50' W 024°53'813.2
2017-Oct-29 20:20N 33°48' W 025°01'413.2
2017-Oct-29 20:00N 33°47' W 025°06'8412.8
2017-Oct-29 13:28N 33°25' W 026°43'  
Track history (hours):
 
Tides and Currents Weather Stations Pressure Air Temp Water Temp Dewpoint Dewpoint Depression Visibility Wind Speed Wind Dir Waves Ship Positions

Slnc Moku Pahu

Owner: American Ship Management, LLC., Concord, CA. More information available from US FCC via Universal Licensing System and Coast Guard Vessel Documentation Center.

Last reported at 2017-Nov-07 12:32 UTC. Time now 2017-Nov-24 05:51 UTC.
Position N 35°45' E 014°25'.
Warning: this ship's position is 16 days out of date.

Type: Cargo ship. MMSI: 366857000.

Date/timePositionNaut miles runAvg speedWind from/ knotsBaromVisibWave heightAir tempDewpointWater temp
2017-Nov-07 12:32N 35°45' E 014°25'013.4
2017-Nov-07 12:30N 35°45' E 014°25'713.4
2017-Nov-07 12:00N 35°49' E 014°18'713.3
2017-Nov-07 11:30N 35°53' E 014°12'713.2
2017-Nov-07 10:59N 35°56' E 014°05'613.3
2017-Nov-07 10:30N 36°00' E 013°58'  
2017-Nov-02 21:46N 35°59' W 005°18'  
2017-Oct-30 11:54N 34°39' W 021°12'512.9
2017-Oct-30 11:30N 34°35' W 021°15'912.1
2017-Oct-30 10:47N 34°29' W 021°23'3011.8
2017-Oct-30 08:13N 34°19' W 021°57'1612.6
2017-Oct-30 06:59N 34°17' W 022°16'812.6
2017-Oct-30 06:23N 34°15' W 022°25'512.7
2017-Oct-30 06:00N 34°15' W 022°31'712.8
2017-Oct-30 05:28N 34°14' W 022°39'612.8
2017-Oct-30 05:01N 34°13' W 022°46'713.0
2017-Oct-30 04:28N 34°11' W 022°55'1113.1
2017-Oct-30 03:36N 34°09' W 023°08'112.9
2017-Oct-30 03:30N 34°09' W 023°09'1513.3
2017-Oct-30 02:23N 34°06' W 023°27'513.1
2017-Oct-30 02:00N 34°05' W 023°33'713.3
2017-Oct-30 01:30N 34°03' W 023°41'1513.4
2017-Oct-30 00:25N 34°01' W 023°58'2413.2
2017-Oct-29 22:34N 33°55' W 024°27'2213.3
2017-Oct-29 20:55N 33°50' W 024°53'813.2
2017-Oct-29 20:20N 33°48' W 025°01'413.2
2017-Oct-29 20:00N 33°47' W 025°06'8412.8
2017-Oct-29 13:28N 33°25' W 026°43'  

Dump ship's entire track history